Time;durP1;ratioP1;P1;durP2;ratioP2;P2;SDS_P1;SDS_P2;PMS_P1;PMS_P2;Temp;Humidity;BMP_temperature;BMP_pressure;BME280_temperature;BME280_humidity;BME280_pressure;Samples;Min_cycle;Max_cycle;Signal;HPM_P1;HPM_P2
2022/12/25 00:02:06;;;;;;;5.05;1.25;;;;;;;;;;5090284;28;20048;-62
2022/12/25 00:04:36;;;;;;;5.47;1.23;;;;;;;;;;5090205;28;20062;-63
2022/12/25 00:07:06;;;;;;;5.15;1.23;;;;;;;;;;5090386;28;20047;-62
2022/12/25 00:09:36;;;;;;;8.50;1.10;;;;;;;;;;5090128;28;20060;-63
2022/12/25 00:12:05;;;;;;;5.38;0.90;;;;;;;;;;5056954;28;20052;-62
2022/12/25 00:14:35;;;;;;;4.65;1.27;;;;;;;;;;5029963;28;20086;-62
2022/12/25 00:17:05;;;;;;;3.88;1.10;;;;;;;;;;5029900;28;20120;-63
2022/12/25 00:19:34;;;;;;;7.18;0.95;;;;;;;;;;5013447;28;20060;-62
2022/12/25 00:22:04;;;;;;;6.38;1.35;;;;;;;;;;5013650;28;20057;-63
2022/12/25 00:24:33;;;;;;;3.70;1.67;;;;;;;;;;5029993;28;20437;-62
2022/12/25 00:27:03;;;;;;;5.63;1.48;;;;;;;;;;5045986;28;20135;-62
2022/12/25 00:29:33;;;;;;;6.10;1.88;;;;;;;;;;5005285;28;20404;-62
2022/12/25 00:32:03;;;;;;;7.03;1.20;;;;;;;;;;5016467;28;20065;-62
2022/12/25 00:34:33;;;;;;;2.33;1.08;;;;;;;;;;5049778;28;20056;-62
2022/12/25 00:37:03;;;;;;;6.00;1.15;;;;;;;;;;4967619;28;20500;-62
2022/12/25 00:39:32;;;;;;;5.25;1.20;;;;;;;;;;5049623;28;20067;-62
2022/12/25 00:42:20;;;;;;;5.03;1.27;;;;;;;;;;5049513;28;20688;-62
2022/12/25 00:44:50;;;;;;;3.10;1.20;;;;;;;;;;5000314;28;20057;-62
2022/12/25 00:47:20;;;;;;;4.07;1.27;;;;;;;;;;5049107;28;20060;-62
2022/12/25 00:49:50;;;;;;;4.53;1.10;;;;;;;;;;5049613;28;20049;-62
2022/12/25 00:52:19;;;;;;;3.92;1.10;;;;;;;;;;4982287;28;20510;-62
2022/12/25 00:54:49;;;;;;;7.35;1.40;;;;;;;;;;5089593;28;20591;-63
2022/12/25 00:57:19;;;;;;;4.75;1.20;;;;;;;;;;5055482;28;20397;-62
2022/12/25 00:59:49;;;;;;;8.13;1.50;;;;;;;;;;5072911;28;20569;-63
2022/12/25 01:02:24;;;;;;;7.15;1.85;;;;;;;;;;5089585;28;20044;-62
2022/12/25 01:04:55;;;;;;;6.70;1.50;;;;;;;;;;5089667;28;20056;-62
2022/12/25 01:07:26;;;;;;;9.05;1.48;;;;;;;;;;5089465;28;20063;-62
2022/12/25 01:12:45;;;;;;;8.48;1.52;;;;;;;;;;5089597;28;20052;-62
2022/12/25 01:15:14;;;;;;;9.50;1.60;;;;;;;;;;5089413;28;20096;-63
2022/12/25 01:17:44;;;;;;;4.22;1.45;;;;;;;;;;5089671;28;20062;-62
2022/12/25 01:20:15;;;;;;;2.95;1.17;;;;;;;;;;5072548;28;20488;-62
2022/12/25 01:22:45;;;;;;;5.68;1.60;;;;;;;;;;5089404;28;20052;-62
2022/12/25 01:25:15;;;;;;;5.47;1.42;;;;;;;;;;5089370;28;20060;-62
2022/12/25 01:27:45;;;;;;;4.85;1.65;;;;;;;;;;5069028;28;20056;-62
2022/12/25 01:30:15;;;;;;;5.00;1.48;;;;;;;;;;5035634;28;20060;-62
2022/12/25 01:32:44;;;;;;;5.35;1.70;;;;;;;;;;5065023;28;20048;-62
2022/12/25 01:35:14;;;;;;;6.65;1.83;;;;;;;;;;5089556;28;20629;-63
2022/12/25 01:37:44;;;;;;;6.88;1.45;;;;;;;;;;5055646;28;20432;-62
2022/12/25 01:40:13;;;;;;;3.95;1.50;;;;;;;;;;5052571;28;20075;-63
2022/12/25 01:42:43;;;;;;;6.88;1.75;;;;;;;;;;5069001;28;20048;-62
2022/12/25 01:45:19;;;;;;;8.18;2.13;;;;;;;;;;5052678;28;20670;-62
2022/12/25 01:47:49;;;;;;;10.32;3.60;;;;;;;;;;5003193;28;20630;-62
2022/12/25 01:50:20;;;;;;;7.68;2.90;;;;;;;;;;5035514;28;20052;-62
2022/12/25 01:52:50;;;;;;;10.18;2.85;;;;;;;;;;5019035;28;20057;-63
2022/12/25 01:55:21;;;;;;;12.32;2.55;;;;;;;;;;5052208;28;20550;-62
2022/12/25 01:57:51;;;;;;;6.90;2.17;;;;;;;;;;5068789;28;20052;-63
2022/12/25 02:00:21;;;;;;;7.55;2.00;;;;;;;;;;5055728;28;20075;-62
2022/12/25 02:02:51;;;;;;;10.40;2.45;;;;;;;;;;5055906;28;20068;-62
2022/12/25 02:05:28;;;;;;;13.13;2.20;;;;;;;;;;5083372;28;20051;-62
2022/12/25 02:08:03;;;;;;;11.10;1.80;;;;;;;;;;5094864;28;20040;-63
2022/12/25 02:10:33;;;;;;;6.13;2.03;;;;;;;;;;5092374;28;20040;-62
2022/12/25 02:13:03;;;;;;;7.50;2.45;;;;;;;;;;5092499;28;20087;-62
2022/12/25 02:16:27;;;;;;;8.15;2.63;;;;;;;;;;5092435;28;20064;-62
2022/12/25 02:19:08;;;;;;;9.43;2.53;;;;;;;;;;4954119;29;20201;-63
2022/12/25 02:22:09;;;;;;;10.70;2.83;;;;;;;;;;4954278;29;20059;-61
2022/12/25 02:25:07;;;;;;;9.98;2.95;;;;;;;;;;4896880;29;20060;-62
2022/12/25 02:28:06;;;;;;;;;;;;;;;;;;4897200;29;20505;-63
2022/12/25 02:30:45;;;;;;;7.97;2.60;;;;;;;;;;4859454;29;20320;-62
2022/12/25 02:36:24;;;;;;;12.50;2.80;;;;;;;;;;4846616;29;20057;-62
2022/12/25 02:41:53;;;;;;;7.90;2.95;;;;;;;;;;4869116;29;20383;-62
2022/12/25 03:07:41;;;;;;;6.68;3.03;;;;;;;;;;4988580;28;20065;-62
2022/12/25 03:13:13;;;;;;;8.50;2.58;;;;;;;;;;5011454;28;20054;-63
2022/12/25 03:18:34;;;;;;;9.45;2.33;;;;;;;;;;4946603;28;20049;-62
2022/12/25 03:26:56;;;;;;;8.15;2.78;;;;;;;;;;5040588;28;20059;-63
2022/12/25 03:32:26;;;;;;;12.07;3.38;;;;;;;;;;4991047;28;20090;-63
2022/12/25 03:35:22;;;;;;;12.38;4.05;;;;;;;;;;4991285;28;20066;-62
2022/12/25 04:36:17;;;;;;;11.15;4.15;;;;;;;;;;5073383;28;20067;-62
2022/12/25 04:38:47;;;;;;;11.88;4.32;;;;;;;;;;5073407;28;20514;-63
2022/12/25 04:41:17;;;;;;;21.05;4.93;;;;;;;;;;5073290;28;20060;-62
2022/12/25 04:43:46;;;;;;;18.50;6.40;;;;;;;;;;5091817;28;20396;-62
2022/12/25 04:46:16;;;;;;;16.33;5.05;;;;;;;;;;5092213;28;20070;-62
2022/12/25 04:48:46;;;;;;;17.67;5.90;;;;;;;;;;5073254;28;20071;-63
2022/12/25 04:51:21;;;;;;;15.55;5.18;;;;;;;;;;5091821;28;20048;-62
2022/12/25 04:53:52;;;;;;;16.25;5.78;;;;;;;;;;5089501;28;20052;-62
2022/12/25 04:56:22;;;;;;;20.35;5.72;;;;;;;;;;5089630;28;20098;-62
2022/12/25 04:58:52;;;;;;;18.52;6.50;;;;;;;;;;5089764;28;20063;-62
2022/12/25 05:01:22;;;;;;;21.98;6.00;;;;;;;;;;5069140;28;20041;-62
2022/12/25 05:03:52;;;;;;;15.07;5.47;;;;;;;;;;5069465;28;20056;-62
2022/12/25 05:06:21;;;;;;;13.52;4.88;;;;;;;;;;5069309;28;20440;-62
2022/12/25 05:08:51;;;;;;;18.27;6.78;;;;;;;;;;5052463;28;20055;-62
2022/12/25 05:11:21;;;;;;;15.80;5.20;;;;;;;;;;5019149;28;20515;-62
2022/12/25 05:13:50;;;;;;;14.63;5.65;;;;;;;;;;5069424;28;20048;-62
2022/12/25 05:16:20;;;;;;;12.27;4.25;;;;;;;;;;5069118;28;20071;-62
2022/12/25 05:18:51;;;;;;;13.63;5.53;;;;;;;;;;5069288;28;20125;-62
2022/12/25 05:21:21;;;;;;;14.20;4.82;;;;;;;;;;5069139;28;20056;-62
2022/12/25 05:23:51;;;;;;;14.43;5.47;;;;;;;;;;5069203;28;20059;-62
2022/12/25 05:26:24;;;;;;;15.80;4.57;;;;;;;;;;5069014;28;20060;-63
2022/12/25 05:28:54;;;;;;;;;;;;;;;;;;5069707;28;20057;-62
2022/12/25 05:31:23;;;;;;;12.35;4.18;;;;;;;;;;5078634;28;19920;-62
2022/12/25 05:33:53;;;;;;;11.20;4.25;;;;;;;;;;5092167;28;20056;-62
2022/12/25 05:36:22;;;;;;;11.10;4.10;;;;;;;;;;5076154;28;20052;-62
2022/12/25 05:38:52;;;;;;;12.20;3.97;;;;;;;;;;5095441;28;20044;-62
2022/12/25 05:41:22;;;;;;;8.63;3.50;;;;;;;;;;5076764;28;20067;-62
2022/12/25 05:43:59;;;;;;;8.07;3.13;;;;;;;;;;5095299;28;20044;-62
2022/12/25 05:46:29;;;;;;;9.88;3.45;;;;;;;;;;5076025;28;20059;-62
2022/12/25 05:48:59;;;;;;;8.82;2.78;;;;;;;;;;5059172;28;20051;-62
2022/12/25 05:51:29;;;;;;;10.95;3.30;;;;;;;;;;5092775;28;20056;-62
2022/12/25 05:53:59;;;;;;;9.60;3.58;;;;;;;;;;5092991;28;20063;-63
2022/12/25 05:56:29;;;;;;;8.75;2.63;;;;;;;;;;5059085;28;20403;-62
2022/12/25 05:58:58;;;;;;;7.95;2.92;;;;;;;;;;5075561;28;20526;-62
2022/12/25 06:01:28;;;;;;;13.32;2.83;;;;;;;;;;5092738;28;20056;-62
2022/12/25 06:03:58;;;;;;;11.65;3.53;;;;;;;;;;5092680;28;20523;-63
2022/12/25 06:06:27;;;;;;;10.43;4.15;;;;;;;;;;4999275;28;20065;-63
2022/12/25 06:08:57;;;;;;;11.23;4.38;;;;;;;;;;5065617;28;20049;-62
2022/12/25 06:11:27;;;;;;;10.45;4.95;;;;;;;;;;4999341;28;20402;-62
2022/12/25 06:13:56;;;;;;;14.80;3.72;;;;;;;;;;5032267;28;20073;-62
2022/12/25 06:16:27;;;;;;;10.88;3.90;;;;;;;;;;5015724;28;20425;-63
2022/12/25 06:19:06;;;;;;;9.63;3.80;;;;;;;;;;4983241;28;20540;-62
2022/12/25 06:21:35;;;;;;;8.80;3.50;;;;;;;;;;5016011;28;20061;-62
2022/12/25 06:24:05;;;;;;;11.90;3.95;;;;;;;;;;5032108;28;20060;-62
2022/12/25 06:26:35;;;;;;;12.85;4.35;;;;;;;;;;5051670;28;20059;-62
2022/12/25 06:29:05;;;;;;;12.27;3.60;;;;;;;;;;5051975;28;20056;-62
2022/12/25 06:31:35;;;;;;;14.25;3.85;;;;;;;;;;5051810;28;20052;-62
2022/12/25 06:34:04;;;;;;;10.90;4.38;;;;;;;;;;5019356;28;20441;-62
2022/12/25 06:36:37;;;;;;;11.80;4.10;;;;;;;;;;5054994;28;20049;-62
2022/12/25 06:39:07;;;;;;;12.80;4.05;;;;;;;;;;5094254;28;20424;-62
2022/12/25 06:41:36;;;;;;;9.70;3.67;;;;;;;;;;5058616;28;20055;-62
2022/12/25 06:44:06;;;;;;;7.72;3.33;;;;;;;;;;5091411;28;20060;-62
2022/12/25 06:46:36;;;;;;;12.55;3.47;;;;;;;;;;5075047;28;20059;-62
2022/12/25 06:49:06;;;;;;;9.88;3.38;;;;;;;;;;5058320;28;20056;-63
2022/12/25 06:51:36;;;;;;;8.95;3.72;;;;;;;;;;5094272;28;20055;-62
2022/12/25 06:54:08;;;;;;;8.50;3.50;;;;;;;;;;5093978;28;20048;-62
2022/12/25 06:56:38;;;;;;;10.15;2.90;;;;;;;;;;5091278;28;20059;-62
2022/12/25 06:59:10;;;;;;;8.00;2.97;;;;;;;;;;5074182;28;20055;-62
2022/12/25 07:01:51;;;;;;;9.52;3.08;;;;;;;;;;5091571;28;20052;-63
2022/12/25 07:04:21;;;;;;;10.15;3.10;;;;;;;;;;5057410;28;20075;-63
2022/12/25 07:06:51;;;;;;;9.02;3.22;;;;;;;;;;5057616;28;20403;-63
2022/12/25 07:09:21;;;;;;;9.63;3.30;;;;;;;;;;5040930;28;20067;-63
2022/12/25 07:11:50;;;;;;;8.10;2.92;;;;;;;;;;5057527;28;20062;-63
2022/12/25 07:14:22;;;;;;;8.75;3.15;;;;;;;;;;5073497;28;20064;-63
2022/12/25 07:16:52;;;;;;;7.60;3.33;;;;;;;;;;5024106;28;20581;-63
2022/12/25 07:19:22;;;;;;;8.05;2.78;;;;;;;;;;5057473;28;20059;-62
2022/12/25 07:21:51;;;;;;;8.00;3.33;;;;;;;;;;5091124;28;20056;-63
2022/12/25 07:24:22;;;;;;;6.68;2.95;;;;;;;;;;5090700;28;20063;-63
2022/12/25 07:26:52;;;;;;;10.40;2.95;;;;;;;;;;5056693;28;20066;-62
2022/12/25 07:29:22;;;;;;;7.47;3.15;;;;;;;;;;5090970;28;20071;-62
2022/12/25 07:31:52;;;;;;;7.82;3.10;;;;;;;;;;5057222;28;20048;-62
2022/12/25 07:34:22;;;;;;;8.40;3.97;;;;;;;;;;5091891;28;20067;-63
2022/12/25 07:36:54;;;;;;;8.20;2.83;;;;;;;;;;5070187;28;20059;-63
2022/12/25 07:39:24;;;;;;;11.60;3.17;;;;;;;;;;5070382;28;20060;-62
2022/12/25 07:41:54;;;;;;;8.60;3.25;;;;;;;;;;5037093;28;20064;-62
2022/12/25 07:44:27;;;;;;;9.50;3.25;;;;;;;;;;5070200;28;20049;-62
2022/12/25 07:46:57;;;;;;;8.35;3.28;;;;;;;;;;5070239;28;20052;-63
2022/12/25 07:49:27;;;;;;;9.18;3.15;;;;;;;;;;5036599;28;20052;-62
2022/12/25 07:51:57;;;;;;;8.30;3.10;;;;;;;;;;5070254;28;20152;-63
2022/12/25 07:54:26;;;;;;;8.18;2.80;;;;;;;;;;5070201;28;20061;-62
2022/12/25 07:56:56;;;;;;;7.15;2.80;;;;;;;;;;5019379;28;20056;-63
2022/12/25 07:59:27;;;;;;;6.43;2.60;;;;;;;;;;5070036;28;20055;-64
2022/12/25 08:01:57;;;;;;;9.45;2.90;;;;;;;;;;5036660;28;20500;-64
2022/12/25 08:04:26;;;;;;;8.52;3.30;;;;;;;;;;5069905;28;20056;-63
2022/12/25 08:06:56;;;;;;;6.55;2.92;;;;;;;;;;5053599;28;20048;-63
2022/12/25 08:09:25;;;;;;;7.38;3.10;;;;;;;;;;5053152;28;20484;-62
2022/12/25 08:11:55;;;;;;;7.32;3.22;;;;;;;;;;5070192;28;20154;-62
2022/12/25 08:14:25;;;;;;;8.40;2.80;;;;;;;;;;5053306;28;20056;-63
2022/12/25 08:16:54;;;;;;;6.53;2.75;;;;;;;;;;5037262;28;20056;-63
2022/12/25 08:19:24;;;;;;;6.40;2.85;;;;;;;;;;5069760;28;20055;-62
2022/12/25 08:21:54;;;;;;;6.68;2.58;;;;;;;;;;5050702;28;20056;-63
2022/12/25 08:24:24;;;;;;;6.57;2.88;;;;;;;;;;5092351;28;20055;-62
2022/12/25 08:26:54;;;;;;;9.07;3.03;;;;;;;;;;5092238;28;20036;-62
2022/12/25 08:29:24;;;;;;;10.10;3.60;;;;;;;;;;5073038;28;20063;-62
2022/12/25 08:31:54;;;;;;;7.18;2.80;;;;;;;;;;5052563;28;20045;-62
2022/12/25 08:34:24;;;;;;;7.35;2.90;;;;;;;;;;5069608;28;20067;-62
2022/12/25 08:36:53;;;;;;;9.73;3.20;;;;;;;;;;5069248;28;20056;-63
2022/12/25 08:39:23;;;;;;;6.97;3.33;;;;;;;;;;5069308;28;20064;-63
2022/12/25 08:41:53;;;;;;;6.47;3.08;;;;;;;;;;5069482;28;20067;-62
2022/12/25 08:44:22;;;;;;;6.03;3.22;;;;;;;;;;5069405;28;20061;-63
2022/12/25 08:46:52;;;;;;;6.32;3.00;;;;;;;;;;5069443;28;20048;-62
2022/12/25 08:49:22;;;;;;;8.20;3.65;;;;;;;;;;5069511;28;20048;-62
2022/12/25 08:51:52;;;;;;;10.48;4.47;;;;;;;;;;5069317;28;20064;-62
2022/12/25 08:54:21;;;;;;;10.95;3.80;;;;;;;;;;5069430;28;20045;-64
2022/12/25 08:56:51;;;;;;;9.60;4.07;;;;;;;;;;5052377;28;20048;-62
2022/12/25 08:59:30;;;;;;;13.20;3.95;;;;;;;;;;5069457;28;20053;-63
2022/12/25 09:01:59;;;;;;;6.97;3.90;;;;;;;;;;5069160;28;20059;-62
2022/12/25 09:04:29;;;;;;;8.65;3.88;;;;;;;;;;5069068;28;20065;-63
2022/12/25 09:06:59;;;;;;;6.60;3.03;;;;;;;;;;5019329;28;20515;-63
2022/12/25 09:09:28;;;;;;;7.35;3.08;;;;;;;;;;5046980;28;20061;-63
2022/12/25 09:11:58;;;;;;;6.97;3.28;;;;;;;;;;5053154;28;20053;-63
2022/12/25 09:14:28;;;;;;;7.85;3.05;;;;;;;;;;5053295;28;20412;-62
2022/12/25 09:16:57;;;;;;;10.20;2.85;;;;;;;;;;5072371;28;20507;-62
2022/12/25 09:19:27;;;;;;;7.35;2.97;;;;;;;;;;5093463;28;20048;-63
2022/12/25 09:21:57;;;;;;;6.78;2.78;;;;;;;;;;5059767;28;20056;-62
2022/12/25 09:24:26;;;;;;;7.53;2.80;;;;;;;;;;5093390;28;20074;-62
2022/12/25 09:26:56;;;;;;;6.35;2.55;;;;;;;;;;5092899;28;20051;-63
2022/12/25 09:29:25;;;;;;;7.40;3.05;;;;;;;;;;5059852;28;20052;-63
2022/12/25 09:31:55;;;;;;;4.93;2.85;;;;;;;;;;5076281;28;20060;-62
2022/12/25 09:34:25;;;;;;;5.78;2.85;;;;;;;;;;5093062;28;20043;-63
2022/12/25 09:36:55;;;;;;;9.52;2.95;;;;;;;;;;5075915;28;20048;-63
2022/12/25 09:39:24;;;;;;;7.75;2.80;;;;;;;;;;5092989;28;20062;-63
2022/12/25 09:42:16;;;;;;;8.75;2.80;;;;;;;;;;5059898;28;20060;-63
2022/12/25 09:44:52;;;;;;;7.65;3.03;;;;;;;;;;5095364;28;20044;-62
2022/12/25 09:47:31;;;;;;;8.80;3.35;;;;;;;;;;5095094;28;20062;-63
2022/12/25 09:50:12;;;;;;;6.78;3.10;;;;;;;;;;5077348;28;20055;-63
2022/12/25 09:53:03;;;;;;;8.88;3.08;;;;;;;;;;5095144;28;20084;-63
2022/12/25 09:55:37;;;;;;;4.78;2.58;;;;;;;;;;5059294;28;20075;-63
2022/12/25 09:58:12;;;;;;;5.85;2.58;;;;;;;;;;5095092;28;20048;-63
2022/12/25 10:00:52;;;;;;;7.38;2.83;;;;;;;;;;5094811;28;20044;-63
2022/12/25 10:04:01;;;;;;;6.43;2.97;;;;;;;;;;5042764;28;20705;-63
2022/12/25 10:07:08;;;;;;;9.48;3.45;;;;;;;;;;5094725;28;20048;-63
2022/12/25 10:09:56;;;;;;;7.30;3.92;;;;;;;;;;5094770;28;20044;-63
2022/12/25 10:12:35;;;;;;;6.20;3.03;;;;;;;;;;5094718;28;20048;-63
2022/12/25 10:15:14;;;;;;;8.93;3.47;;;;;;;;;;5075671;28;20059;-63
2022/12/25 10:17:46;;;;;;;8.88;3.38;;;;;;;;;;5075629;28;20582;-63
2022/12/25 10:20:16;;;;;;;;;;;;;;;;;;5093971;28;20491;-63
2022/12/25 10:22:50;;;;;;;8.85;3.58;;;;;;;;;;5059267;28;19927;-63
2022/12/25 10:25:23;;;;;;;10.88;3.42;;;;;;;;;;5092292;28;20063;-63
2022/12/25 10:28:10;;;;;;;9.57;3.33;;;;;;;;;;5092014;28;20503;-63
2022/12/25 10:30:43;;;;;;;11.00;3.45;;;;;;;;;;5093481;28;20043;-63
2022/12/25 10:33:14;;;;;;;8.98;2.92;;;;;;;;;;5075394;28;20062;-63
2022/12/25 10:35:45;;;;;;;7.00;2.72;;;;;;;;;;5094220;28;20484;-63
2022/12/25 10:38:19;;;;;;;4.97;2.47;;;;;;;;;;5058599;28;20052;-63
2022/12/25 10:41:26;;;;;;;7.57;3.20;;;;;;;;;;5091778;28;20508;-63
2022/12/25 10:43:57;;;;;;;5.47;2.75;;;;;;;;;;5091826;28;20060;-63
2022/12/25 10:46:28;;;;;;;8.65;3.22;;;;;;;;;;5074388;28;20419;-63
2022/12/25 10:49:01;;;;;;;6.40;2.40;;;;;;;;;;5059369;28;20142;-63
2022/12/25 10:51:31;;;;;;;;;;;;;;;;;;5092194;28;20058;-63
2022/12/25 10:54:25;;;;;;;7.55;2.40;;;;;;;;;;5091619;28;20384;-63
2022/12/25 10:57:03;;;;;;;5.30;2.13;;;;;;;;;;5091711;28;20187;-64
2022/12/25 10:59:57;;;;;;;5.57;1.98;;;;;;;;;;5091489;28;20068;-63
2022/12/25 11:02:29;;;;;;;4.75;2.10;;;;;;;;;;5041344;28;20687;-63
2022/12/25 11:05:07;;;;;;;;;;;;;;;;;;5074640;28;20048;-63
2022/12/25 11:07:49;;;;;;;;;;;;;;;;;;5091929;28;20295;-63
2022/12/25 11:10:27;;;;;;;4.20;1.88;;;;;;;;;;5024533;28;19928;-63
2022/12/25 11:12:59;;;;;;;5.68;2.28;;;;;;;;;;5091193;28;20056;-63
2022/12/25 11:15:35;;;;;;;8.57;2.53;;;;;;;;;;5070598;28;20052;-63
2022/12/25 11:18:23;;;;;;;5.85;2.28;;;;;;;;;;5077719;28;20072;-63
2022/12/25 11:20:56;;;;;;;4.15;2.00;;;;;;;;;;5091491;28;20059;-63
2022/12/25 11:23:28;;;;;;;3.22;1.55;;;;;;;;;;5091062;28;20044;-63
2022/12/25 11:26:00;;;;;;;3.53;1.80;;;;;;;;;;5090859;28;20048;-63
2022/12/25 11:28:34;;;;;;;3.78;2.45;;;;;;;;;;5090654;28;20056;-63
2022/12/25 11:31:19;;;;;;;5.47;1.90;;;;;;;;;;5040735;28;20056;-63
2022/12/25 11:34:27;;;;;;;2.83;1.52;;;;;;;;;;5007695;28;20504;-63
2022/12/25 11:36:59;;;;;;;4.43;2.00;;;;;;;;;;4997773;28;20076;-63
2022/12/25 11:39:33;;;;;;;5.13;2.33;;;;;;;;;;5030765;28;20676;-63
2022/12/25 11:42:31;;;;;;;4.50;2.05;;;;;;;;;;5030471;28;20041;-63
2022/12/25 11:45:15;;;;;;;9.50;2.08;;;;;;;;;;5030431;28;20068;-63
2022/12/25 11:47:54;;;;;;;3.55;1.65;;;;;;;;;;5013881;28;20545;-63
2022/12/25 11:50:33;;;;;;;5.28;1.80;;;;;;;;;;5030301;28;20050;-63
2022/12/25 11:53:09;;;;;;;4.53;1.90;;;;;;;;;;5006248;28;20405;-64
2022/12/25 11:55:48;;;;;;;4.22;1.52;;;;;;;;;;5050365;28;20072;-63
2022/12/25 11:58:35;;;;;;;2.30;1.40;;;;;;;;;;5050228;28;20041;-63
2022/12/25 12:01:28;;;;;;;4.70;1.50;;;;;;;;;;5050140;28;20437;-64
2022/12/25 12:04:06;;;;;;;3.00;1.58;;;;;;;;;;4990677;28;20050;-64
2022/12/25 12:06:51;;;;;;;5.55;1.30;;;;;;;;;;4990898;28;20454;-64
2022/12/25 12:09:20;;;;;;;;;;;;;;;;;;5047051;28;20057;-64
2022/12/25 12:12:08;;;;;;;2.70;1.30;;;;;;;;;;4980896;28;19921;-64
2022/12/25 12:15:07;;;;;;;2.97;1.48;;;;;;;;;;5030026;28;20069;-64
2022/12/25 12:17:37;;;;;;;1.92;1.10;;;;;;;;;;5049672;28;20147;-64
2022/12/25 12:20:13;;;;;;;3.15;1.33;;;;;;;;;;5000526;28;20061;-64
2022/12/25 12:22:49;;;;;;;3.28;1.38;;;;;;;;;;5049759;28;20057;-63
2022/12/25 12:25:20;;;;;;;3.67;1.42;;;;;;;;;;5016544;28;20056;-64
2022/12/25 12:27:58;;;;;;;2.15;1.15;;;;;;;;;;5016109;28;20053;-64
2022/12/25 12:30:34;;;;;;;3.97;1.33;;;;;;;;;;4983567;28;20052;-64
2022/12/25 12:33:06;;;;;;;5.38;1.13;;;;;;;;;;5033059;28;20057;-64
2022/12/25 12:35:39;;;;;;;2.58;1.15;;;;;;;;;;5049613;28;20056;-64
2022/12/25 12:38:18;;;;;;;3.70;1.15;;;;;;;;;;5049553;28;20049;-64
2022/12/25 12:40:53;;;;;;;4.65;1.15;;;;;;;;;;5062678;28;20048;-64
2022/12/25 12:43:40;;;;;;;5.28;1.15;;;;;;;;;;5089134;28;20064;-64
2022/12/25 12:46:26;;;;;;;3.00;1.23;;;;;;;;;;5089896;28;20070;-64
2022/12/25 12:49:18;;;;;;;3.28;1.10;;;;;;;;;;5090963;28;20508;-64
2022/12/25 12:51:49;;;;;;;2.95;1.20;;;;;;;;;;5089747;28;20530;-64
2022/12/25 12:54:26;;;;;;;4.60;1.05;;;;;;;;;;5072687;28;20051;-64
2022/12/25 12:57:01;;;;;;;2.95;1.10;;;;;;;;;;5089658;28;20063;-64
2022/12/25 12:59:39;;;;;;;2.92;1.10;;;;;;;;;;5072544;28;20044;-64
2022/12/25 13:02:56;;;;;;;2.33;1.10;;;;;;;;;;5040778;28;20503;-64
2022/12/25 13:06:10;;;;;;;2.22;1.13;;;;;;;;;;5089612;28;20524;-64
2022/12/25 13:09:18;;;;;;;4.50;1.27;;;;;;;;;;5009682;28;20057;-64
2022/12/25 13:11:49;;;;;;;2.15;1.15;;;;;;;;;;4932257;29;20063;-63
2022/12/25 13:14:22;;;;;;;3.33;1.15;;;;;;;;;;4931995;29;20059;-64
2022/12/25 13:16:53;;;;;;;3.85;1.23;;;;;;;;;;4901144;29;20067;-64
2022/12/25 13:19:26;;;;;;;2.00;1.00;;;;;;;;;;4932186;29;20064;-64
2022/12/25 13:22:00;;;;;;;2.40;1.23;;;;;;;;;;4916247;29;20062;-64
2022/12/25 13:24:32;;;;;;;1.88;1.00;;;;;;;;;;4931958;29;20063;-64
2022/12/25 13:27:24;;;;;;;4.03;1.40;;;;;;;;;;4885535;29;20060;-64
2022/12/25 13:29:55;;;;;;;2.80;1.20;;;;;;;;;;4916081;29;20056;-64
2022/12/25 13:32:31;;;;;;;1.83;1.00;;;;;;;;;;4900332;29;20062;-64
2022/12/25 13:35:01;;;;;;;2.45;1.60;;;;;;;;;;4931919;29;20085;-64
2022/12/25 13:37:31;;;;;;;2.47;1.30;;;;;;;;;;4915916;29;20539;-64
2022/12/25 13:40:04;;;;;;;3.42;0.95;;;;;;;;;;4916124;29;20060;-64
2022/12/25 13:42:40;;;;;;;5.75;1.27;;;;;;;;;;4931998;29;20055;-64
2022/12/25 13:45:14;;;;;;;3.05;0.80;;;;;;;;;;5003256;28;20061;-65
2022/12/25 13:47:44;;;;;;;1.55;0.90;;;;;;;;;;5028837;28;20408;-64
2022/12/25 13:50:29;;;;;;;2.22;1.00;;;;;;;;;;5068857;28;20056;-64
2022/12/25 13:53:16;;;;;;;5.20;1.13;;;;;;;;;;5068802;28;20412;-64
2022/12/25 13:55:51;;;;;;;2.30;0.98;;;;;;;;;;5055893;28;20063;-64
2022/12/25 13:58:25;;;;;;;2.38;0.90;;;;;;;;;;5072465;28;20049;-64
2022/12/25 14:00:57;;;;;;;1.52;0.80;;;;;;;;;;5022742;28;20492;-64
2022/12/25 14:03:39;;;;;;;2.38;1.02;;;;;;;;;;5072342;28;20053;-64
2022/12/25 14:06:24;;;;;;;1.95;0.82;;;;;;;;;;5072362;28;20041;-64
2022/12/25 14:08:57;;;;;;;2.35;1.02;;;;;;;;;;5039115;28;20044;-64
2022/12/25 14:11:29;;;;;;;8.85;1.17;;;;;;;;;;5055310;28;20041;-65
2022/12/25 14:14:07;;;;;;;2.45;1.00;;;;;;;;;;5072170;28;20428;-64
2022/12/25 14:16:42;;;;;;;1.60;1.30;;;;;;;;;;5071960;28;20394;-64
2022/12/25 14:19:33;;;;;;;2.42;0.90;;;;;;;;;;5072093;28;20044;-64
2022/12/25 14:22:19;;;;;;;4.25;1.00;;;;;;;;;;5071951;28;20452;-65
2022/12/25 14:24:49;;;;;;;2.47;1.00;;;;;;;;;;5071997;28;20048;-65
2022/12/25 14:27:31;;;;;;;4.35;1.13;;;;;;;;;;5078225;28;20063;-65
2022/12/25 14:30:01;;;;;;;3.13;0.80;;;;;;;;;;5094381;28;20051;-64
2022/12/25 14:32:40;;;;;;;2.78;0.70;;;;;;;;;;5094538;28;20051;-65
2022/12/25 14:35:12;;;;;;;1.40;0.75;;;;;;;;;;5094322;28;20048;-64
2022/12/25 14:38:00;;;;;;;1.85;0.88;;;;;;;;;;5092545;28;20411;-65
2022/12/25 14:40:32;;;;;;;4.07;0.88;;;;;;;;;;5094186;28;20514;-65
2022/12/25 14:43:05;;;;;;;1.73;0.73;;;;;;;;;;5058850;28;20122;-65
2022/12/25 14:45:39;;;;;;;1.40;1.08;;;;;;;;;;5094129;28;20044;-64
2022/12/25 14:48:21;;;;;;;3.72;1.02;;;;;;;;;;5094176;28;20040;-65
2022/12/25 14:51:03;;;;;;;4.03;1.10;;;;;;;;;;5094205;28;20048;-65
2022/12/25 14:53:38;;;;;;;1.92;1.05;;;;;;;;;;5093902;28;20043;-65
2022/12/25 14:56:09;;;;;;;1.60;0.90;;;;;;;;;;5094183;28;20043;-64
2022/12/25 14:58:48;;;;;;;4.50;0.88;;;;;;;;;;5094020;28;20048;-64
2022/12/25 15:01:35;;;;;;;1.75;0.90;;;;;;;;;;5042687;28;20044;-65
2022/12/25 15:04:11;;;;;;;1.75;0.82;;;;;;;;;;5057756;28;20511;-64
2022/12/25 15:06:55;;;;;;;1.90;0.80;;;;;;;;;;5093121;28;20055;-65
2022/12/25 15:09:28;;;;;;;1.33;0.80;;;;;;;;;;5058060;28;20055;-64
2022/12/25 15:11:58;;;;;;;2.70;0.82;;;;;;;;;;5058268;28;20052;-64
2022/12/25 15:14:30;;;;;;;2.05;0.77;;;;;;;;;;5091682;28;20062;-64
2022/12/25 15:17:01;;;;;;;2.63;0.80;;;;;;;;;;5093440;28;20051;-64
2022/12/25 15:19:36;;;;;;;2.30;0.73;;;;;;;;;;5093649;28;20052;-64
2022/12/25 15:22:11;;;;;;;3.42;1.00;;;;;;;;;;5093354;28;20056;-64
2022/12/25 15:24:41;;;;;;;2.50;0.88;;;;;;;;;;5093651;28;20052;-64
2022/12/25 15:27:20;;;;;;;2.95;0.98;;;;;;;;;;5074110;28;20066;-65
2022/12/25 15:29:50;;;;;;;2.60;0.88;;;;;;;;;;5093239;28;20047;-65
2022/12/25 15:32:40;;;;;;;2.58;0.90;;;;;;;;;;5093244;28;20055;-65
2022/12/25 15:35:21;;;;;;;1.20;0.70;;;;;;;;;;5093375;28;20044;-66
2022/12/25 15:37:51;;;;;;;1.95;0.90;;;;;;;;;;5074629;28;20532;-66
2022/12/25 15:40:21;;;;;;;4.45;0.90;;;;;;;;;;5093272;28;20040;-65
2022/12/25 15:42:51;;;;;;;1.45;0.77;;;;;;;;;;5093245;28;20059;-65
2022/12/25 15:45:27;;;;;;;1.90;0.75;;;;;;;;;;5009490;28;20044;-65
2022/12/25 15:47:57;;;;;;;1.10;0.60;;;;;;;;;;5092947;28;20044;-65
2022/12/25 15:50:28;;;;;;;1.27;0.73;;;;;;;;;;5092730;28;20040;-64
2022/12/25 15:52:59;;;;;;;1.27;0.73;;;;;;;;;;5092790;28;20036;-66
2022/12/25 15:55:29;;;;;;;1.42;0.70;;;;;;;;;;5093061;28;20052;-65
2022/12/25 15:57:58;;;;;;;2.85;0.95;;;;;;;;;;5092709;28;20380;-64
2022/12/25 16:00:28;;;;;;;1.92;1.10;;;;;;;;;;5073933;28;20055;-65
2022/12/25 16:02:57;;;;;;;1.33;0.60;;;;;;;;;;5092535;28;20048;-65
2022/12/25 16:05:28;;;;;;;1.40;0.82;;;;;;;;;;5092917;28;20051;-65
2022/12/25 16:07:58;;;;;;;2.08;0.75;;;;;;;;;;5092674;28;20063;-65
2022/12/25 16:10:28;;;;;;;3.30;1.08;;;;;;;;;;5090186;28;20056;-65
2022/12/25 16:13:06;;;;;;;1.20;0.70;;;;;;;;;;5090056;28;20052;-65
2022/12/25 16:15:35;;;;;;;1.30;0.80;;;;;;;;;;5090088;28;20063;-66
2022/12/25 16:18:06;;;;;;;2.20;0.65;;;;;;;;;;5089218;28;20051;-65
2022/12/25 16:20:36;;;;;;;1.23;0.90;;;;;;;;;;5090374;28;20052;-64
2022/12/25 16:23:05;;;;;;;2.15;0.70;;;;;;;;;;5089982;28;20048;-65
2022/12/25 16:25:35;;;;;;;2.08;0.60;;;;;;;;;;5056386;28;20060;-65
2022/12/25 16:28:08;;;;;;;1.23;0.65;;;;;;;;;;5089840;28;20055;-65
2022/12/25 16:30:39;;;;;;;1.17;0.75;;;;;;;;;;5089938;28;20040;-64
2022/12/25 16:33:10;;;;;;;1.95;0.88;;;;;;;;;;5033250;28;20057;-64
2022/12/25 16:35:39;;;;;;;1.42;0.80;;;;;;;;;;5049770;28;20063;-63
2022/12/25 16:38:10;;;;;;;5.53;0.70;;;;;;;;;;5049323;28;20413;-63
2022/12/25 16:40:40;;;;;;;2.28;0.73;;;;;;;;;;5016425;28;20564;-63
2022/12/25 16:43:10;;;;;;;3.00;0.80;;;;;;;;;;5049515;28;20192;-63
2022/12/25 16:45:39;;;;;;;1.63;0.60;;;;;;;;;;5049756;28;20045;-63
2022/12/25 16:48:11;;;;;;;3.38;0.70;;;;;;;;;;5060220;28;20053;-63
2022/12/25 16:50:41;;;;;;;;;;;;;;;;;;5013733;28;20049;-63
2022/12/25 16:53:13;;;;;;;3.42;1.35;;;;;;;;;;5029423;28;19962;-63
2022/12/25 16:55:44;;;;;;;1.85;0.70;;;;;;;;;;5029605;28;20050;-63
2022/12/25 16:58:14;;;;;;;1.15;0.65;;;;;;;;;;4980351;28;20177;-63
2022/12/25 17:00:44;;;;;;;1.85;0.95;;;;;;;;;;4980551;28;20057;-62
2022/12/25 17:03:17;;;;;;;1.27;0.90;;;;;;;;;;5031461;28;20046;-62
2022/12/25 17:05:47;;;;;;;2.03;0.63;;;;;;;;;;5016213;28;20456;-63
2022/12/25 17:08:17;;;;;;;1.23;0.80;;;;;;;;;;5049118;28;20068;-63
2022/12/25 17:10:46;;;;;;;1.02;0.63;;;;;;;;;;5049451;28;20385;-63